Nuttings Lake, Massachusetts
Current Conditions -  °F | °C
As of 6:10 PM on Wednesday 26 Nov 2014 (Local Time) from KBED Reporting Station
Haze Haze  
Wind Chill: 22°   Ceiling: 600
Heat Index: 32°   Visibility: 0.75mi
Dew Point: 31°   Wind: 14mph
Humidity: 96%   Direction: 20°NNE
Pressure: 29.85"   Gusts: 24mph
Location:  42.5381°N, 71.2689°W
Report Text: KBED 262310Z 02012G21KT 3/4SM R11/P6000FT UP BR OVC006 00/M01 A2985 RMK AO2 P0002 T00001006
Loading
Personal Weather Stations






























Interactive Weather Map New forecast layout! Learn more

10-Day Weather Forecast

Advertisements
Track Severe Weather on mobile